sensor_id;sensor_type;location;lat;lon;timestamp;temperature;humidity
5196;DHT22;2617;51.006;12.436;2023-03-01T00:03:46;-4.00;99.90
5196;DHT22;2617;51.006;12.436;2023-03-01T00:08:49;-4.00;99.90
5196;DHT22;2617;51.006;12.436;2023-03-01T00:13:52;-4.10;99.90
5196;DHT22;2617;51.006;12.436;2023-03-01T00:18:54;-4.20;99.90
5196;DHT22;2617;51.006;12.436;2023-03-01T00:23:56;-4.20;99.90
5196;DHT22;2617;51.006;12.436;2023-03-01T00:28:59;-4.30;99.90
5196;DHT22;2617;51.006;12.436;2023-03-01T00:34:03;-4.40;99.90
5196;DHT22;2617;51.006;12.436;2023-03-01T00:39:05;-4.40;99.90
5196;DHT22;2617;51.006;12.436;2023-03-01T00:44:07;-4.50;99.90
5196;DHT22;2617;51.006;12.436;2023-03-01T00:49:10;-4.60;99.90
5196;DHT22;2617;51.006;12.436;2023-03-01T00:54:13;-4.60;99.90
5196;DHT22;2617;51.006;12.436;2023-03-01T00:59:15;-4.60;99.90
5196;DHT22;2617;51.006;12.436;2023-03-01T01:04:18;-4.70;99.90
5196;DHT22;2617;51.006;12.436;2023-03-01T01:09:20;-4.80;99.90
5196;DHT22;2617;51.006;12.436;2023-03-01T01:14:22;-4.80;99.90
5196;DHT22;2617;51.006;12.436;2023-03-01T01:19:25;-4.90;99.90
5196;DHT22;2617;51.006;12.436;2023-03-01T01:24:28;-4.90;99.90
5196;DHT22;2617;51.006;12.436;2023-03-01T01:29:31;-5.00;99.90
5196;DHT22;2617;51.006;12.436;2023-03-01T01:34:33;-5.00;99.90
5196;DHT22;2617;51.006;12.436;2023-03-01T01:39:35;-5.10;99.90
5196;DHT22;2617;51.006;12.436;2023-03-01T01:44:39;-5.10;99.90
5196;DHT22;2617;51.006;12.436;2023-03-01T01:49:43;-5.10;99.90
5196;DHT22;2617;51.006;12.436;2023-03-01T01:54:53;-5.20;99.90
5196;DHT22;2617;51.006;12.436;2023-03-01T01:59:54;-5.20;99.90
5196;DHT22;2617;51.006;12.436;2023-03-01T02:05:01;-5.30;99.90
5196;DHT22;2617;51.006;12.436;2023-03-01T02:10:01;-5.30;99.90
5196;DHT22;2617;51.006;12.436;2023-03-01T02:15:03;-5.40;99.90
5196;DHT22;2617;51.006;12.436;2023-03-01T02:20:18;-5.40;99.90
5196;DHT22;2617;51.006;12.436;2023-03-01T02:25:26;-5.40;99.90
5196;DHT22;2617;51.006;12.436;2023-03-01T02:30:32;-5.50;99.90
5196;DHT22;2617;51.006;12.436;2023-03-01T02:35:35;-5.60;99.90
5196;DHT22;2617;51.006;12.436;2023-03-01T02:40:37;-5.60;99.90
5196;DHT22;2617;51.006;12.436;2023-03-01T02:45:50;-5.60;99.90
5196;DHT22;2617;51.006;12.436;2023-03-01T02:51:01;-5.60;99.90
5196;DHT22;2617;51.006;12.436;2023-03-01T02:56:00;-5.70;99.90
5196;DHT22;2617;51.006;12.436;2023-03-01T03:01:03;-5.70;99.90
5196;DHT22;2617;51.006;12.436;2023-03-01T03:06:06;-5.70;99.90
5196;DHT22;2617;51.006;12.436;2023-03-01T03:11:08;-5.70;99.90
5196;DHT22;2617;51.006;12.436;2023-03-01T03:16:12;-5.70;99.90
5196;DHT22;2617;51.006;12.436;2023-03-01T03:21:14;-5.80;99.90
5196;DHT22;2617;51.006;12.436;2023-03-01T03:26:17;-5.70;99.90
5196;DHT22;2617;51.006;12.436;2023-03-01T03:31:19;-5.80;99.90
5196;DHT22;2617;51.006;12.436;2023-03-01T03:36:22;-5.80;99.90
5196;DHT22;2617;51.006;12.436;2023-03-01T03:41:24;-5.80;99.90
5196;DHT22;2617;51.006;12.436;2023-03-01T03:46:26;-5.90;99.90
5196;DHT22;2617;51.006;12.436;2023-03-01T03:51:30;-5.90;99.90
5196;DHT22;2617;51.006;12.436;2023-03-01T03:56:32;-6.00;99.90
5196;DHT22;2617;51.006;12.436;2023-03-01T04:01:34;-6.00;99.90
5196;DHT22;2617;51.006;12.436;2023-03-01T04:06:37;-6.00;99.90
5196;DHT22;2617;51.006;12.436;2023-03-01T04:11:39;-6.10;99.90
5196;DHT22;2617;51.006;12.436;2023-03-01T04:16:42;-6.10;99.90
5196;DHT22;2617;51.006;12.436;2023-03-01T04:21:44;-6.10;99.90
5196;DHT22;2617;51.006;12.436;2023-03-01T04:26:47;-6.10;99.90
5196;DHT22;2617;51.006;12.436;2023-03-01T04:31:49;-6.10;99.90
5196;DHT22;2617;51.006;12.436;2023-03-01T04:36:52;-6.20;99.90
5196;DHT22;2617;51.006;12.436;2023-03-01T04:41:55;-6.20;99.90
5196;DHT22;2617;51.006;12.436;2023-03-01T04:46:58;-6.30;99.90
5196;DHT22;2617;51.006;12.436;2023-03-01T04:52:00;-6.30;99.90
5196;DHT22;2617;51.006;12.436;2023-03-01T04:57:04;-6.30;99.90
5196;DHT22;2617;51.006;12.436;2023-03-01T05:02:06;-6.40;99.90
5196;DHT22;2617;51.006;12.436;2023-03-01T05:07:09;-6.30;99.90
5196;DHT22;2617;51.006;12.436;2023-03-01T05:12:13;-6.30;99.90
5196;DHT22;2617;51.006;12.436;2023-03-01T05:17:15;-6.30;99.90
5196;DHT22;2617;51.006;12.436;2023-03-01T05:22:18;-6.30;99.90
5196;DHT22;2617;51.006;12.436;2023-03-01T05:27:20;-6.30;99.90
5196;DHT22;2617;51.006;12.436;2023-03-01T05:32:23;-6.30;99.90
5196;DHT22;2617;51.006;12.436;2023-03-01T05:37:25;-6.40;99.90
5196;DHT22;2617;51.006;12.436;2023-03-01T05:42:27;-6.40;99.90
5196;DHT22;2617;51.006;12.436;2023-03-01T05:47:30;-6.50;99.90
5196;DHT22;2617;51.006;12.436;2023-03-01T05:52:32;-6.50;99.90
5196;DHT22;2617;51.006;12.436;2023-03-01T05:57:35;-6.50;99.90
5196;DHT22;2617;51.006;12.436;2023-03-01T06:02:37;-6.50;99.90
5196;DHT22;2617;51.006;12.436;2023-03-01T06:07:40;-6.40;99.90
5196;DHT22;2617;51.006;12.436;2023-03-01T06:12:43;-6.30;99.90
5196;DHT22;2617;51.006;12.436;2023-03-01T06:17:46;-6.20;99.90
5196;DHT22;2617;51.006;12.436;2023-03-01T06:22:49;-6.00;99.90
5196;DHT22;2617;51.006;12.436;2023-03-01T06:27:51;-6.10;99.90
5196;DHT22;2617;51.006;12.436;2023-03-01T06:32:53;-5.90;99.90
5196;DHT22;2617;51.006;12.436;2023-03-01T06:37:56;-5.80;99.90
5196;DHT22;2617;51.006;12.436;2023-03-01T06:42:59;-5.60;99.90
5196;DHT22;2617;51.006;12.436;2023-03-01T06:48:03;-5.40;99.90
5196;DHT22;2617;51.006;12.436;2023-03-01T06:53:05;-5.20;99.90
5196;DHT22;2617;51.006;12.436;2023-03-01T06:58:08;-5.00;99.90
5196;DHT22;2617;51.006;12.436;2023-03-01T07:03:10;-4.80;99.90
5196;DHT22;2617;51.006;12.436;2023-03-01T07:08:15;-4.60;99.90
5196;DHT22;2617;51.006;12.436;2023-03-01T07:13:17;-4.50;99.90
5196;DHT22;2617;51.006;12.436;2023-03-01T07:18:19;-4.40;99.90
5196;DHT22;2617;51.006;12.436;2023-03-01T07:23:25;-4.10;99.90
5196;DHT22;2617;51.006;12.436;2023-03-01T07:28:27;-4.10;99.90
5196;DHT22;2617;51.006;12.436;2023-03-01T07:33:29;-4.00;99.90
5196;DHT22;2617;51.006;12.436;2023-03-01T07:38:32;-3.90;99.90
5196;DHT22;2617;51.006;12.436;2023-03-01T07:43:34;-3.80;99.90
5196;DHT22;2617;51.006;12.436;2023-03-01T07:48:37;-3.70;99.90
5196;DHT22;2617;51.006;12.436;2023-03-01T07:53:39;-3.50;99.90
5196;DHT22;2617;51.006;12.436;2023-03-01T07:58:43;-3.30;99.90
5196;DHT22;2617;51.006;12.436;2023-03-01T08:03:46;-3.00;99.90
5196;DHT22;2617;51.006;12.436;2023-03-01T08:08:48;-3.00;99.90
5196;DHT22;2617;51.006;12.436;2023-03-01T08:13:51;-2.80;99.90
5196;DHT22;2617;51.006;12.436;2023-03-01T08:18:53;-2.60;99.90
5196;DHT22;2617;51.006;12.436;2023-03-01T08:23:56;-2.50;99.90
5196;DHT22;2617;51.006;12.436;2023-03-01T08:28:59;-2.20;99.90
5196;DHT22;2617;51.006;12.436;2023-03-01T08:34:02;-2.00;99.90
5196;DHT22;2617;51.006;12.436;2023-03-01T08:39:03;-1.70;99.90
5196;DHT22;2617;51.006;12.436;2023-03-01T08:44:06;-1.50;99.90
5196;DHT22;2617;51.006;12.436;2023-03-01T08:49:13;-1.30;99.90
5196;DHT22;2617;51.006;12.436;2023-03-01T08:54:16;-1.20;99.90
5196;DHT22;2617;51.006;12.436;2023-03-01T08:59:18;-1.00;99.90
5196;DHT22;2617;51.006;12.436;2023-03-01T09:04:21;-0.80;99.90
5196;DHT22;2617;51.006;12.436;2023-03-01T09:09:23;-0.60;99.90
5196;DHT22;2617;51.006;12.436;2023-03-01T09:14:26;-0.30;99.90
5196;DHT22;2617;51.006;12.436;2023-03-01T09:19:30;-0.20;99.90
5196;DHT22;2617;51.006;12.436;2023-03-01T09:24:32;-0.20;99.90
5196;DHT22;2617;51.006;12.436;2023-03-01T09:29:36;0.00;99.90
5196;DHT22;2617;51.006;12.436;2023-03-01T09:34:38;-0.10;99.90
5196;DHT22;2617;51.006;12.436;2023-03-01T09:39:55;0.10;99.90
5196;DHT22;2617;51.006;12.436;2023-03-01T09:44:59;0.30;99.90
5196;DHT22;2617;51.006;12.436;2023-03-01T09:50:11;0.40;99.90
5196;DHT22;2617;51.006;12.436;2023-03-01T09:55:15;0.50;99.90
5196;DHT22;2617;51.006;12.436;2023-03-01T10:11:20;1.00;99.90
5196;DHT22;2617;51.006;12.436;2023-03-01T10:16:24;1.20;99.90
5196;DHT22;2617;51.006;12.436;2023-03-01T10:21:25;1.20;99.90
5196;DHT22;2617;51.006;12.436;2023-03-01T10:26:38;1.50;99.90
5196;DHT22;2617;51.006;12.436;2023-03-01T10:31:44;1.50;99.90
5196;DHT22;2617;51.006;12.436;2023-03-01T10:36:48;1.70;99.90
5196;DHT22;2617;51.006;12.436;2023-03-01T10:41:57;1.90;99.90
5196;DHT22;2617;51.006;12.436;2023-03-01T10:46:59;1.90;99.90
5196;DHT22;2617;51.006;12.436;2023-03-01T10:52:11;1.90;99.90
5196;DHT22;2617;51.006;12.436;2023-03-01T10:57:05;2.10;99.90
5196;DHT22;2617;51.006;12.436;2023-03-01T11:02:16;2.20;99.90
5196;DHT22;2617;51.006;12.436;2023-03-01T11:07:18;2.40;99.90
5196;DHT22;2617;51.006;12.436;2023-03-01T11:12:20;2.40;99.90
5196;DHT22;2617;51.006;12.436;2023-03-01T11:17:27;2.60;99.90
5196;DHT22;2617;51.006;12.436;2023-03-01T11:22:30;2.50;99.90
5196;DHT22;2617;51.006;12.436;2023-03-01T11:27:33;2.50;99.90
5196;DHT22;2617;51.006;12.436;2023-03-01T11:32:38;2.50;99.90
5196;DHT22;2617;51.006;12.436;2023-03-01T11:37:43;2.60;99.90
5196;DHT22;2617;51.006;12.436;2023-03-01T11:53:54;3.20;99.90
5196;DHT22;2617;51.006;12.436;2023-03-01T12:09:44;3.40;99.90
5196;DHT22;2617;51.006;12.436;2023-03-01T12:14:58;3.40;99.90
5196;DHT22;2617;51.006;12.436;2023-03-01T12:20:30;3.30;99.40
5196;DHT22;2617;51.006;12.436;2023-03-01T12:25:37;3.50;98.90
5196;DHT22;2617;51.006;12.436;2023-03-01T12:36:31;3.70;96.10
5196;DHT22;2617;51.006;12.436;2023-03-01T12:57:39;3.90;96.60
5196;DHT22;2617;51.006;12.436;2023-03-01T13:03:10;4.00;97.30
5196;DHT22;2617;51.006;12.436;2023-03-01T13:08:31;3.90;97.20
5196;DHT22;2617;51.006;12.436;2023-03-01T13:13:37;3.90;95.90
5196;DHT22;2617;51.006;12.436;2023-03-01T13:18:40;3.90;96.70
5196;DHT22;2617;51.006;12.436;2023-03-01T13:23:43;4.00;96.70
5196;DHT22;2617;51.006;12.436;2023-03-01T13:29:00;3.80;97.80
5196;DHT22;2617;51.006;12.436;2023-03-01T13:34:02;4.00;96.40
5196;DHT22;2617;51.006;12.436;2023-03-01T13:39:27;4.00;96.10
5196;DHT22;2617;51.006;12.436;2023-03-01T13:44:33;4.00;96.60
5196;DHT22;2617;51.006;12.436;2023-03-01T13:49:43;4.20;95.50
5196;DHT22;2617;51.006;12.436;2023-03-01T13:54:45;4.20;95.40
5196;DHT22;2617;51.006;12.436;2023-03-01T13:59:48;4.20;96.50
5196;DHT22;2617;51.006;12.436;2023-03-01T14:04:57;4.20;95.50
5196;DHT22;2617;51.006;12.436;2023-03-01T14:10:01;4.20;96.00
5196;DHT22;2617;51.006;12.436;2023-03-01T14:15:15;4.10;96.40
5196;DHT22;2617;51.006;12.436;2023-03-01T14:20:21;4.10;96.40
5196;DHT22;2617;51.006;12.436;2023-03-01T14:25:24;4.20;97.60
5196;DHT22;2617;51.006;12.436;2023-03-01T14:30:27;4.20;94.80
5196;DHT22;2617;51.006;12.436;2023-03-01T14:35:31;4.20;94.80
5196;DHT22;2617;51.006;12.436;2023-03-01T14:40:34;4.20;93.90
5196;DHT22;2617;51.006;12.436;2023-03-01T14:45:36;4.20;93.90
5196;DHT22;2617;51.006;12.436;2023-03-01T14:50:41;4.30;93.50
5196;DHT22;2617;51.006;12.436;2023-03-01T14:55:44;4.20;93.10
5196;DHT22;2617;51.006;12.436;2023-03-01T15:00:54;4.30;93.60
5196;DHT22;2617;51.006;12.436;2023-03-01T15:05:55;4.40;92.70
5196;DHT22;2617;51.006;12.436;2023-03-01T15:11:18;4.30;91.80
5196;DHT22;2617;51.006;12.436;2023-03-01T15:16:24;4.30;91.80
5196;DHT22;2617;51.006;12.436;2023-03-01T15:21:27;4.40;90.30
5196;DHT22;2617;51.006;12.436;2023-03-01T15:26:31;4.40;90.70
5196;DHT22;2617;51.006;12.436;2023-03-01T15:31:34;4.40;90.10
5196;DHT22;2617;51.006;12.436;2023-03-01T15:36:42;4.30;90.00
5196;DHT22;2617;51.006;12.436;2023-03-01T15:41:47;4.30;86.50
5196;DHT22;2617;51.006;12.436;2023-03-01T15:46:49;4.30;86.40
5196;DHT22;2617;51.006;12.436;2023-03-01T15:51:51;4.20;85.80
5196;DHT22;2617;51.006;12.436;2023-03-01T15:56:54;4.20;84.60
5196;DHT22;2617;51.006;12.436;2023-03-01T16:01:56;4.10;85.50
5196;DHT22;2617;51.006;12.436;2023-03-01T16:06:58;4.00;87.20
5196;DHT22;2617;51.006;12.436;2023-03-01T16:12:01;3.90;87.80
5196;DHT22;2617;51.006;12.436;2023-03-01T16:17:04;3.70;89.80
5196;DHT22;2617;51.006;12.436;2023-03-01T16:22:09;3.60;90.10
5196;DHT22;2617;51.006;12.436;2023-03-01T16:27:11;3.60;90.10
5196;DHT22;2617;51.006;12.436;2023-03-01T16:32:13;3.50;90.90
5196;DHT22;2617;51.006;12.436;2023-03-01T16:37:16;3.20;94.20
5196;DHT22;2617;51.006;12.436;2023-03-01T16:42:19;3.20;94.20
5196;DHT22;2617;51.006;12.436;2023-03-01T16:47:21;3.00;95.80
5196;DHT22;2617;51.006;12.436;2023-03-01T16:52:25;2.60;99.80
5196;DHT22;2617;51.006;12.436;2023-03-01T16:57:27;2.60;99.80
5196;DHT22;2617;51.006;12.436;2023-03-01T17:02:30;2.30;99.90
5196;DHT22;2617;51.006;12.436;2023-03-01T17:07:32;2.30;99.90
5196;DHT22;2617;51.006;12.436;2023-03-01T17:12:35;2.20;99.90
5196;DHT22;2617;51.006;12.436;2023-03-01T17:17:37;2.10;99.90
5196;DHT22;2617;51.006;12.436;2023-03-01T17:22:41;1.80;99.90
5196;DHT22;2617;51.006;12.436;2023-03-01T17:27:43;1.80;99.90
5196;DHT22;2617;51.006;12.436;2023-03-01T17:32:45;1.80;99.90
5196;DHT22;2617;51.006;12.436;2023-03-01T17:37:48;1.70;99.90
5196;DHT22;2617;51.006;12.436;2023-03-01T17:42:51;1.60;99.90
5196;DHT22;2617;51.006;12.436;2023-03-01T17:47:55;1.50;99.90
5196;DHT22;2617;51.006;12.436;2023-03-01T17:52:57;1.50;99.90
5196;DHT22;2617;51.006;12.436;2023-03-01T17:58:00;1.50;99.90
5196;DHT22;2617;51.006;12.436;2023-03-01T18:03:03;1.40;99.90
5196;DHT22;2617;51.006;12.436;2023-03-01T18:08:05;1.20;99.90
5196;DHT22;2617;51.006;12.436;2023-03-01T18:13:08;1.20;99.90
5196;DHT22;2617;51.006;12.436;2023-03-01T18:18:10;1.10;99.90
5196;DHT22;2617;51.006;12.436;2023-03-01T18:23:13;1.00;99.90
5196;DHT22;2617;51.006;12.436;2023-03-01T18:28:15;1.00;99.90
5196;DHT22;2617;51.006;12.436;2023-03-01T18:33:17;1.00;99.90
5196;DHT22;2617;51.006;12.436;2023-03-01T18:38:20;1.00;99.90
5196;DHT22;2617;51.006;12.436;2023-03-01T18:43:23;0.80;99.90
5196;DHT22;2617;51.006;12.436;2023-03-01T18:48:26;0.80;99.90
5196;DHT22;2617;51.006;12.436;2023-03-01T18:53:28;0.70;99.90
5196;DHT22;2617;51.006;12.436;2023-03-01T18:58:30;0.40;99.90
5196;DHT22;2617;51.006;12.436;2023-03-01T19:03:34;0.10;99.90
5196;DHT22;2617;51.006;12.436;2023-03-01T19:08:36;0.10;99.90
5196;DHT22;2617;51.006;12.436;2023-03-01T19:13:39;0.00;99.90
5196;DHT22;2617;51.006;12.436;2023-03-01T19:18:42;-0.10;99.90
5196;DHT22;2617;51.006;12.436;2023-03-01T19:23:44;-0.20;99.90
5196;DHT22;2617;51.006;12.436;2023-03-01T19:28:47;-0.40;99.90
5196;DHT22;2617;51.006;12.436;2023-03-01T19:33:49;-0.40;99.90
5196;DHT22;2617;51.006;12.436;2023-03-01T19:38:53;-0.70;99.90
5196;DHT22;2617;51.006;12.436;2023-03-01T19:43:56;-0.60;99.90
5196;DHT22;2617;51.006;12.436;2023-03-01T19:48:58;-0.60;99.90
5196;DHT22;2617;51.006;12.436;2023-03-01T19:54:01;-0.70;99.90
5196;DHT22;2617;51.006;12.436;2023-03-01T19:59:03;-0.70;99.90
5196;DHT22;2617;51.006;12.436;2023-03-01T20:04:07;-0.90;99.90
5196;DHT22;2617;51.006;12.436;2023-03-01T20:09:09;-0.90;99.90
5196;DHT22;2617;51.006;12.436;2023-03-01T20:14:12;-0.90;99.90
5196;DHT22;2617;51.006;12.436;2023-03-01T20:19:15;-1.10;99.90
5196;DHT22;2617;51.006;12.436;2023-03-01T20:24:17;-1.20;99.90
5196;DHT22;2617;51.006;12.436;2023-03-01T20:29:21;-1.40;99.90
5196;DHT22;2617;51.006;12.436;2023-03-01T20:34:24;-1.40;99.90
5196;DHT22;2617;51.006;12.436;2023-03-01T20:39:26;-1.50;99.90
5196;DHT22;2617;51.006;12.436;2023-03-01T20:44:30;-1.60;99.90
5196;DHT22;2617;51.006;12.436;2023-03-01T20:49:32;-1.60;99.90
5196;DHT22;2617;51.006;12.436;2023-03-01T20:54:35;-1.40;99.90
5196;DHT22;2617;51.006;12.436;2023-03-01T20:59:38;-1.40;99.90
5196;DHT22;2617;51.006;12.436;2023-03-01T21:04:41;-1.40;99.90
5196;DHT22;2617;51.006;12.436;2023-03-01T21:09:43;-1.50;99.90
5196;DHT22;2617;51.006;12.436;2023-03-01T21:14:46;-1.50;99.90
5196;DHT22;2617;51.006;12.436;2023-03-01T21:19:49;-1.50;99.90
5196;DHT22;2617;51.006;12.436;2023-03-01T21:24:51;-1.50;99.90
5196;DHT22;2617;51.006;12.436;2023-03-01T21:29:54;-1.30;99.90
5196;DHT22;2617;51.006;12.436;2023-03-01T21:34:57;-1.20;99.90
5196;DHT22;2617;51.006;12.436;2023-03-01T21:39:59;-1.30;99.90
5196;DHT22;2617;51.006;12.436;2023-03-01T21:45:03;-1.60;99.90
5196;DHT22;2617;51.006;12.436;2023-03-01T21:50:06;-1.60;99.90
5196;DHT22;2617;51.006;12.436;2023-03-01T21:55:09;-1.40;99.90
5196;DHT22;2617;51.006;12.436;2023-03-01T22:00:12;-1.60;99.90
5196;DHT22;2617;51.006;12.436;2023-03-01T22:05:15;-1.60;99.90
5196;DHT22;2617;51.006;12.436;2023-03-01T22:10:17;-1.70;99.90
5196;DHT22;2617;51.006;12.436;2023-03-01T22:15:20;-1.90;99.90
5196;DHT22;2617;51.006;12.436;2023-03-01T22:20:23;-2.10;99.90
5196;DHT22;2617;51.006;12.436;2023-03-01T22:25:25;-2.10;99.90
5196;DHT22;2617;51.006;12.436;2023-03-01T22:30:28;-2.20;99.90
5196;DHT22;2617;51.006;12.436;2023-03-01T22:35:30;-2.30;99.90
5196;DHT22;2617;51.006;12.436;2023-03-01T22:40:33;-2.30;99.90
5196;DHT22;2617;51.006;12.436;2023-03-01T22:45:35;-2.20;99.90
5196;DHT22;2617;51.006;12.436;2023-03-01T22:50:40;-2.10;99.90
5196;DHT22;2617;51.006;12.436;2023-03-01T22:55:40;-2.10;99.90
5196;DHT22;2617;51.006;12.436;2023-03-01T23:00:43;-2.30;99.90
5196;DHT22;2617;51.006;12.436;2023-03-01T23:05:45;-2.40;99.90
5196;DHT22;2617;51.006;12.436;2023-03-01T23:10:47;-2.50;99.90
5196;DHT22;2617;51.006;12.436;2023-03-01T23:15:55;-2.50;99.90
5196;DHT22;2617;51.006;12.436;2023-03-01T23:20:57;-2.50;99.90
5196;DHT22;2617;51.006;12.436;2023-03-01T23:26:00;-2.50;99.90
5196;DHT22;2617;51.006;12.436;2023-03-01T23:31:03;-2.40;99.90
5196;DHT22;2617;51.006;12.436;2023-03-01T23:36:06;-2.40;99.90
5196;DHT22;2617;51.006;12.436;2023-03-01T23:41:09;-2.50;99.90
5196;DHT22;2617;51.006;12.436;2023-03-01T23:46:12;-2.60;99.90
5196;DHT22;2617;51.006;12.436;2023-03-01T23:51:14;-2.80;99.90
5196;DHT22;2617;51.006;12.436;2023-03-01T23:56:16;-2.80;99.90
